sensor_id;sensor_type;location;lat;lon;timestamp;pressure;altitude;pressure_sealevel;temperature;humidity
21011;BME280;10663;42.714;23.274;2023-03-18T00:00:30;95198.78;;;2.41;77.22
21011;BME280;10663;42.714;23.274;2023-03-18T00:02:02;95197.19;;;2.40;77.01
21011;BME280;10663;42.714;23.274;2023-03-18T00:03:34;95198.19;;;2.33;77.06
21011;BME280;10663;42.714;23.274;2023-03-18T00:05:08;95195.78;;;2.31;77.14
21011;BME280;10663;42.714;23.274;2023-03-18T00:06:40;95196.38;;;2.27;77.35
21011;BME280;10663;42.714;23.274;2023-03-18T00:08:13;95197.56;;;2.31;77.11
21011;BME280;10663;42.714;23.274;2023-03-18T00:09:44;95194.97;;;2.24;76.86
21011;BME280;10663;42.714;23.274;2023-03-18T00:11:16;95196.56;;;2.32;76.38
21011;BME280;10663;42.714;23.274;2023-03-18T00:12:48;95192.97;;;2.26;76.87
21011;BME280;10663;42.714;23.274;2023-03-18T00:14:19;95192.16;;;2.25;76.36
21011;BME280;10663;42.714;23.274;2023-03-18T00:15:50;95194.78;;;2.32;76.32
21011;BME280;10663;42.714;23.274;2023-03-18T00:17:21;95185.94;;;2.33;76.45
21011;BME280;10663;42.714;23.274;2023-03-18T00:18:52;95182.50;;;2.33;76.21
21011;BME280;10663;42.714;23.274;2023-03-18T00:20:24;95190.16;;;2.34;76.03
21011;BME280;10663;42.714;23.274;2023-03-18T00:22:08;95182.09;;;2.29;76.16
21011;BME280;10663;42.714;23.274;2023-03-18T00:23:39;95187.94;;;2.24;76.63
21011;BME280;10663;42.714;23.274;2023-03-18T00:25:12;95174.47;;;2.21;76.10
21011;BME280;10663;42.714;23.274;2023-03-18T00:26:43;95173.88;;;2.25;76.59
21011;BME280;10663;42.714;23.274;2023-03-18T00:28:14;95175.88;;;2.23;76.30
21011;BME280;10663;42.714;23.274;2023-03-18T00:29:45;95178.28;;;2.25;76.68
21011;BME280;10663;42.714;23.274;2023-03-18T00:31:17;95169.25;;;2.21;76.32
21011;BME280;10663;42.714;23.274;2023-03-18T00:32:48;95171.44;;;2.31;76.29
21011;BME280;10663;42.714;23.274;2023-03-18T00:34:19;95161.81;;;2.24;76.45
21011;BME280;10663;42.714;23.274;2023-03-18T00:35:50;95169.06;;;2.16;76.76
21011;BME280;10663;42.714;23.274;2023-03-18T00:37:23;95167.44;;;2.15;76.87
21011;BME280;10663;42.714;23.274;2023-03-18T00:39:03;95168.84;;;2.17;76.81
21011;BME280;10663;42.714;23.274;2023-03-18T00:40:35;95164.03;;;2.08;77.07
21011;BME280;10663;42.714;23.274;2023-03-18T00:42:22;95160.59;;;2.07;76.61
21011;BME280;10663;42.714;23.274;2023-03-18T00:43:54;95160.59;;;2.07;76.55
21011;BME280;10663;42.714;23.274;2023-03-18T00:45:26;95155.19;;;2.09;77.19
21011;BME280;10663;42.714;23.274;2023-03-18T00:46:57;95156.00;;;2.09;77.31
21011;BME280;10663;42.714;23.274;2023-03-18T00:48:27;95151.56;;;2.03;77.61
21011;BME280;10663;42.714;23.274;2023-03-18T00:49:59;95158.00;;;2.07;77.33
21011;BME280;10663;42.714;23.274;2023-03-18T00:51:32;95151.16;;;2.13;76.71
21011;BME280;10663;42.714;23.274;2023-03-18T00:53:03;95148.94;;;2.10;77.49
21011;BME280;10663;42.714;23.274;2023-03-18T00:54:34;95152.97;;;1.99;77.82
21011;BME280;10663;42.714;23.274;2023-03-18T00:56:06;95142.50;;;1.93;77.89
21011;BME280;10663;42.714;23.274;2023-03-18T00:57:36;95137.47;;;1.84;79.44
21011;BME280;10663;42.714;23.274;2023-03-18T00:59:08;95143.72;;;1.97;78.80
21011;BME280;10663;42.714;23.274;2023-03-18T01:00:39;95139.50;;;2.02;78.26
21011;BME280;10663;42.714;23.274;2023-03-18T01:02:10;95133.69;;;2.13;78.21
21011;BME280;10663;42.714;23.274;2023-03-18T01:03:42;95138.50;;;2.03;78.46
21011;BME280;10663;42.714;23.274;2023-03-18T01:05:13;95143.53;;;2.05;78.41
21011;BME280;10663;42.714;23.274;2023-03-18T01:06:44;95132.88;;;2.13;77.83
21011;BME280;10663;42.714;23.274;2023-03-18T01:08:16;95134.88;;;2.11;77.60
21011;BME280;10663;42.714;23.274;2023-03-18T01:09:47;95136.09;;;1.95;77.87
21011;BME280;10663;42.714;23.274;2023-03-18T01:11:19;95130.28;;;2.06;77.87
21011;BME280;10663;42.714;23.274;2023-03-18T01:12:52;95131.25;;;2.12;77.57
21011;BME280;10663;42.714;23.274;2023-03-18T01:14:23;95121.44;;;2.07;77.66
21011;BME280;10663;42.714;23.274;2023-03-18T01:15:54;95129.28;;;2.07;77.69
21011;BME280;10663;42.714;23.274;2023-03-18T01:17:26;95125.03;;;2.06;78.18
21011;BME280;10663;42.714;23.274;2023-03-18T01:18:57;95128.66;;;2.05;78.00
21011;BME280;10663;42.714;23.274;2023-03-18T01:20:27;95128.03;;;2.10;78.04
21011;BME280;10663;42.714;23.274;2023-03-18T01:22:03;95133.25;;;2.10;77.60
21011;BME280;10663;42.714;23.274;2023-03-18T01:23:39;95128.47;;;2.07;78.15
21011;BME280;10663;42.714;23.274;2023-03-18T01:25:12;95124.84;;;2.14;77.87
21011;BME280;10663;42.714;23.274;2023-03-18T01:26:46;95126.84;;;2.12;77.78
21011;BME280;10663;42.714;23.274;2023-03-18T01:28:19;95127.25;;;2.16;77.76
21011;BME280;10663;42.714;23.274;2023-03-18T01:29:50;95125.66;;;2.15;77.94
21011;BME280;10663;42.714;23.274;2023-03-18T01:31:26;95121.63;;;2.12;78.04
21011;BME280;10663;42.714;23.274;2023-03-18T01:33:02;95130.47;;;2.11;78.02
21011;BME280;10663;42.714;23.274;2023-03-18T01:34:34;95118.81;;;2.14;77.54
21011;BME280;10663;42.714;23.274;2023-03-18T01:36:07;95128.84;;;2.10;77.63
21011;BME280;10663;42.714;23.274;2023-03-18T01:37:38;95127.25;;;2.03;78.04
21011;BME280;10663;42.714;23.274;2023-03-18T01:39:15;95124.84;;;2.01;78.86
21011;BME280;10663;42.714;23.274;2023-03-18T01:40:47;95127.84;;;1.78;80.49
21011;BME280;10663;42.714;23.274;2023-03-18T01:42:24;95132.44;;;1.63;82.10
21011;BME280;10663;42.714;23.274;2023-03-18T01:43:55;95129.41;;;1.53;83.12
21011;BME280;10663;42.714;23.274;2023-03-18T01:45:28;95132.03;;;1.53;83.69
21011;BME280;10663;42.714;23.274;2023-03-18T01:47:02;95126.19;;;1.64;83.20
21011;BME280;10663;42.714;23.274;2023-03-18T01:48:37;95129.47;;;1.73;82.77
21011;BME280;10663;42.714;23.274;2023-03-18T01:50:14;95121.22;;;1.82;81.91
21011;BME280;10663;42.714;23.274;2023-03-18T01:52:03;95123.44;;;1.85;81.57
21011;BME280;10663;42.714;23.274;2023-03-18T01:53:41;95122.59;;;1.59;82.74
21011;BME280;10663;42.714;23.274;2023-03-18T01:55:18;95123.63;;;1.71;82.13
21011;BME280;10663;42.714;23.274;2023-03-18T01:56:51;95119.41;;;1.70;82.03
21011;BME280;10663;42.714;23.274;2023-03-18T01:58:30;95116.19;;;1.74;81.72
21011;BME280;10663;42.714;23.274;2023-03-18T02:00:04;95120.00;;;1.78;81.17
21011;BME280;10663;42.714;23.274;2023-03-18T02:01:50;95118.22;;;1.79;80.35
21011;BME280;10663;42.714;23.274;2023-03-18T02:03:25;95115.38;;;1.74;79.81
21011;BME280;10663;42.714;23.274;2023-03-18T02:05:02;95115.38;;;1.67;80.78
21011;BME280;10663;42.714;23.274;2023-03-18T02:06:36;95110.78;;;1.63;80.70
21011;BME280;10663;42.714;23.274;2023-03-18T02:08:07;95113.38;;;1.63;80.50
21011;BME280;10663;42.714;23.274;2023-03-18T02:09:39;95108.53;;;1.60;81.14
21011;BME280;10663;42.714;23.274;2023-03-18T02:11:10;95108.94;;;1.57;81.08
21011;BME280;10663;42.714;23.274;2023-03-18T02:12:44;95115.53;;;1.46;81.87
21011;BME280;10663;42.714;23.274;2023-03-18T02:14:24;95107.72;;;1.46;81.90
21011;BME280;10663;42.714;23.274;2023-03-18T02:16:12;95112.16;;;1.52;81.81
21011;BME280;10663;42.714;23.274;2023-03-18T02:17:54;95108.34;;;1.55;82.13
21011;BME280;10663;42.714;23.274;2023-03-18T02:19:33;95103.53;;;1.58;82.12
21011;BME280;10663;42.714;23.274;2023-03-18T02:21:36;95101.72;;;1.59;81.92
21011;BME280;10663;42.714;23.274;2023-03-18T02:23:28;95107.31;;;1.56;82.04
21011;BME280;10663;42.714;23.274;2023-03-18T02:27:00;95111.53;;;1.57;81.83
21011;BME280;10663;42.714;23.274;2023-03-18T02:28:40;95111.34;;;1.52;82.16
21011;BME280;10663;42.714;23.274;2023-03-18T02:30:18;95106.53;;;1.55;81.56
21011;BME280;10663;42.714;23.274;2023-03-18T02:31:52;95109.31;;;1.47;82.16
21011;BME280;10663;42.714;23.274;2023-03-18T02:33:31;95103.09;;;1.41;82.45
21011;BME280;10663;42.714;23.274;2023-03-18T02:35:06;95106.09;;;1.38;82.50
21011;BME280;10663;42.714;23.274;2023-03-18T02:36:43;95097.88;;;1.35;82.88
21011;BME280;10663;42.714;23.274;2023-03-18T02:38:14;95106.88;;;1.32;82.67
21011;BME280;10663;42.714;23.274;2023-03-18T02:39:46;95111.47;;;1.24;83.35
21011;BME280;10663;42.714;23.274;2023-03-18T02:41:20;95105.66;;;1.15;83.68
21011;BME280;10663;42.714;23.274;2023-03-18T02:42:52;95103.84;;;1.16;84.11
21011;BME280;10663;42.714;23.274;2023-03-18T02:44:23;95108.25;;;1.22;83.79
21011;BME280;10663;42.714;23.274;2023-03-18T02:47:56;95107.91;;;1.38;83.43
21011;BME280;10663;42.714;23.274;2023-03-18T02:49:29;95105.69;;;1.35;83.31
21011;BME280;10663;42.714;23.274;2023-03-18T02:51:02;95107.47;;;1.21;83.53
21011;BME280;10663;42.714;23.274;2023-03-18T02:52:34;95102.25;;;1.21;83.95
21011;BME280;10663;42.714;23.274;2023-03-18T02:54:13;95100.25;;;1.23;83.46
21011;BME280;10663;42.714;23.274;2023-03-18T02:55:44;95103.44;;;1.19;83.70
21011;BME280;10663;42.714;23.274;2023-03-18T02:57:15;95107.06;;;1.18;83.83
21011;BME280;10663;42.714;23.274;2023-03-18T02:58:49;95102.22;;;1.08;83.56
21011;BME280;10663;42.714;23.274;2023-03-18T03:00:21;95108.56;;;0.92;84.35
21011;BME280;10663;42.714;23.274;2023-03-18T03:01:54;95103.16;;;0.94;84.14
21011;BME280;10663;42.714;23.274;2023-03-18T03:03:25;95105.63;;;1.08;83.05
21011;BME280;10663;42.714;23.274;2023-03-18T03:04:57;95099.81;;;1.13;83.15
21011;BME280;10663;42.714;23.274;2023-03-18T03:06:28;95104.03;;;1.14;82.83
21011;BME280;10663;42.714;23.274;2023-03-18T03:08:00;95104.22;;;1.06;83.07
21011;BME280;10663;42.714;23.274;2023-03-18T03:09:32;95103.03;;;1.08;83.01
21011;BME280;10663;42.714;23.274;2023-03-18T03:11:03;95107.19;;;1.03;82.46
21011;BME280;10663;42.714;23.274;2023-03-18T03:12:37;95108.97;;;0.89;83.64
21011;BME280;10663;42.714;23.274;2023-03-18T03:14:09;95106.56;;;0.88;83.43
21011;BME280;10663;42.714;23.274;2023-03-18T03:15:42;95109.09;;;0.74;83.80
21011;BME280;10663;42.714;23.274;2023-03-18T03:17:13;95103.50;;;0.78;83.63
21011;BME280;10663;42.714;23.274;2023-03-18T03:18:45;95113.31;;;0.75;83.72
21011;BME280;10663;42.714;23.274;2023-03-18T03:20:18;95109.13;;;0.81;83.28
21011;BME280;10663;42.714;23.274;2023-03-18T03:21:49;95112.31;;;0.77;82.74
21011;BME280;10663;42.714;23.274;2023-03-18T03:23:22;95111.13;;;0.79;82.08
21011;BME280;10663;42.714;23.274;2023-03-18T03:24:53;95117.34;;;0.78;81.62
21011;BME280;10663;42.714;23.274;2023-03-18T03:26:24;95122.16;;;0.81;81.70
21011;BME280;10663;42.714;23.274;2023-03-18T03:27:55;95116.53;;;0.78;82.10
21011;BME280;10663;42.714;23.274;2023-03-18T03:29:28;95124.72;;;0.74;81.94
21011;BME280;10663;42.714;23.274;2023-03-18T03:30:59;95127.50;;;0.66;82.28
21011;BME280;10663;42.714;23.274;2023-03-18T03:32:30;95117.16;;;0.80;81.17
21011;BME280;10663;42.714;23.274;2023-03-18T03:34:01;95119.34;;;0.83;80.71
21011;BME280;10663;42.714;23.274;2023-03-18T03:35:33;95114.56;;;0.86;80.75
21011;BME280;10663;42.714;23.274;2023-03-18T03:37:05;95117.00;;;0.94;80.46
21011;BME280;10663;42.714;23.274;2023-03-18T03:38:37;95124.25;;;0.99;80.00
21011;BME280;10663;42.714;23.274;2023-03-18T03:40:12;95125.00;;;0.93;79.65
21011;BME280;10663;42.714;23.274;2023-03-18T03:41:45;95121.94;;;0.76;80.46
21011;BME280;10663;42.714;23.274;2023-03-18T03:43:19;95120.75;;;0.79;80.54
21011;BME280;10663;42.714;23.274;2023-03-18T03:44:50;95119.78;;;0.86;80.37
21011;BME280;10663;42.714;23.274;2023-03-18T03:46:22;95126.16;;;0.84;80.55
21011;BME280;10663;42.714;23.274;2023-03-18T03:47:55;95128.81;;;0.90;79.76
21011;BME280;10663;42.714;23.274;2023-03-18T03:49:26;95121.94;;;0.83;79.81
21011;BME280;10663;42.714;23.274;2023-03-18T03:50:57;95129.84;;;0.96;79.37
21011;BME280;10663;42.714;23.274;2023-03-18T03:52:28;95131.06;;;1.00;78.94
21011;BME280;10663;42.714;23.274;2023-03-18T03:53:59;95135.06;;;0.96;78.88
21011;BME280;10663;42.714;23.274;2023-03-18T03:55:30;95135.22;;;0.88;79.20
21011;BME280;10663;42.714;23.274;2023-03-18T03:57:01;95134.78;;;0.84;79.15
21011;BME280;10663;42.714;23.274;2023-03-18T03:58:34;95142.00;;;0.82;79.31
21011;BME280;10663;42.714;23.274;2023-03-18T04:00:09;95135.28;;;0.60;80.75
21011;BME280;10663;42.714;23.274;2023-03-18T04:01:47;95133.69;;;0.65;81.56
21011;BME280;10663;42.714;23.274;2023-03-18T04:03:18;95132.88;;;0.65;81.34
21011;BME280;10663;42.714;23.274;2023-03-18T04:04:49;95138.72;;;0.67;81.59
21011;BME280;10663;42.714;23.274;2023-03-18T04:06:33;95134.34;;;0.74;81.23
21011;BME280;10663;42.714;23.274;2023-03-18T04:08:05;95131.72;;;0.67;81.51
21011;BME280;10663;42.714;23.274;2023-03-18T04:09:42;95129.69;;;0.63;81.81
21011;BME280;10663;42.714;23.274;2023-03-18T04:11:12;95128.09;;;0.62;81.52
21011;BME280;10663;42.714;23.274;2023-03-18T04:12:46;95134.31;;;0.67;81.99
21011;BME280;10663;42.714;23.274;2023-03-18T04:14:17;95134.94;;;0.69;82.16
21011;BME280;10663;42.714;23.274;2023-03-18T04:15:48;95134.41;;;0.81;80.89
21011;BME280;10663;42.714;23.274;2023-03-18T04:17:22;95134.59;;;0.79;80.87
21011;BME280;10663;42.714;23.274;2023-03-18T04:18:54;95136.72;;;0.69;81.46
21011;BME280;10663;42.714;23.274;2023-03-18T04:20:27;95145.72;;;0.66;81.47
21011;BME280;10663;42.714;23.274;2023-03-18T04:21:58;95154.00;;;0.77;81.00
21011;BME280;10663;42.714;23.274;2023-03-18T04:23:29;95151.41;;;0.77;81.02
21011;BME280;10663;42.714;23.274;2023-03-18T04:25:03;95151.84;;;0.80;80.44
21011;BME280;10663;42.714;23.274;2023-03-18T04:26:34;95155.84;;;0.83;79.75
21011;BME280;10663;42.714;23.274;2023-03-18T04:28:08;95154.25;;;0.82;79.94
21011;BME280;10663;42.714;23.274;2023-03-18T04:29:40;95159.47;;;0.82;79.39
21011;BME280;10663;42.714;23.274;2023-03-18T04:31:11;95168.66;;;0.78;79.60
21011;BME280;10663;42.714;23.274;2023-03-18T04:32:43;95159.94;;;0.64;81.29
21011;BME280;10663;42.714;23.274;2023-03-18T04:34:16;95163.41;;;0.71;80.65
21011;BME280;10663;42.714;23.274;2023-03-18T04:35:49;95158.66;;;0.81;79.67
21011;BME280;10663;42.714;23.274;2023-03-18T04:37:22;95168.28;;;0.81;79.70
21011;BME280;10663;42.714;23.274;2023-03-18T04:38:58;95170.88;;;0.81;79.98
21011;BME280;10663;42.714;23.274;2023-03-18T04:40:30;95167.69;;;0.85;79.60
21011;BME280;10663;42.714;23.274;2023-03-18T04:42:03;95165.91;;;0.92;79.20
21011;BME280;10663;42.714;23.274;2023-03-18T04:43:34;95164.16;;;0.99;78.75
21011;BME280;10663;42.714;23.274;2023-03-18T04:45:06;95170.75;;;0.95;78.68
21011;BME280;10663;42.714;23.274;2023-03-18T04:46:37;95171.63;;;1.09;78.65
21011;BME280;10663;42.714;23.274;2023-03-18T04:48:08;95167.97;;;1.03;77.88
21011;BME280;10663;42.714;23.274;2023-03-18T04:49:44;95169.59;;;1.04;77.79
21011;BME280;10663;42.714;23.274;2023-03-18T04:51:16;95172.19;;;1.04;77.60
21011;BME280;10663;42.714;23.274;2023-03-18T04:52:48;95177.66;;;1.16;77.65
21011;BME280;10663;42.714;23.274;2023-03-18T04:54:22;95172.84;;;1.13;78.81
21011;BME280;10663;42.714;23.274;2023-03-18T04:55:56;95179.47;;;1.16;78.48
21011;BME280;10663;42.714;23.274;2023-03-18T04:57:33;95174.06;;;1.17;78.00
21011;BME280;10663;42.714;23.274;2023-03-18T04:59:17;95175.25;;;1.15;77.82
21011;BME280;10663;42.714;23.274;2023-03-18T05:00:49;95176.63;;;1.10;78.33
21011;BME280;10663;42.714;23.274;2023-03-18T05:02:29;95178.84;;;1.13;78.23
21011;BME280;10663;42.714;23.274;2023-03-18T05:04:00;95186.50;;;1.15;77.62
21011;BME280;10663;42.714;23.274;2023-03-18T05:05:39;95185.06;;;1.12;78.06
21011;BME280;10663;42.714;23.274;2023-03-18T05:07:14;95186.50;;;1.22;77.58
21011;BME280;10663;42.714;23.274;2023-03-18T05:08:53;95179.75;;;1.34;76.98
21011;BME280;10663;42.714;23.274;2023-03-18T05:10:25;95182.75;;;1.37;76.57
21011;BME280;10663;42.714;23.274;2023-03-18T05:11:56;95187.00;;;1.45;76.18
21011;BME280;10663;42.714;23.274;2023-03-18T05:13:38;95177.75;;;1.42;75.90
21011;BME280;10663;42.714;23.274;2023-03-18T05:15:12;95179.38;;;1.50;75.87
21011;BME280;10663;42.714;23.274;2023-03-18T05:16:48;95174.09;;;1.30;76.02
21011;BME280;10663;42.714;23.274;2023-03-18T05:18:21;95178.19;;;1.53;75.25
21011;BME280;10663;42.714;23.274;2023-03-18T05:19:54;95177.78;;;1.49;75.90
21011;BME280;10663;42.714;23.274;2023-03-18T05:21:27;95177.78;;;1.56;75.96
21011;BME280;10663;42.714;23.274;2023-03-18T05:22:58;95170.38;;;1.59;75.80
21011;BME280;10663;42.714;23.274;2023-03-18T05:24:40;95173.59;;;1.55;75.78
21011;BME280;10663;42.714;23.274;2023-03-18T05:26:12;95178.19;;;1.59;75.73
21011;BME280;10663;42.714;23.274;2023-03-18T05:27:46;95176.59;;;1.65;75.66
21011;BME280;10663;42.714;23.274;2023-03-18T05:29:31;95169.00;;;1.70;75.75
21011;BME280;10663;42.714;23.274;2023-03-18T05:31:22;95176.63;;;1.78;75.67
21011;BME280;10663;42.714;23.274;2023-03-18T05:32:54;95164.78;;;1.69;76.21
21011;BME280;10663;42.714;23.274;2023-03-18T05:34:38;95174.44;;;1.88;75.72
21011;BME280;10663;42.714;23.274;2023-03-18T05:36:11;95171.84;;;1.95;75.46
21011;BME280;10663;42.714;23.274;2023-03-18T05:37:55;95170.03;;;1.88;75.67
21011;BME280;10663;42.714;23.274;2023-03-18T05:39:26;95180.88;;;1.92;75.08
21011;BME280;10663;42.714;23.274;2023-03-18T05:40:58;95179.47;;;1.96;75.25
21011;BME280;10663;42.714;23.274;2023-03-18T05:42:38;95183.69;;;2.04;75.54
21011;BME280;10663;42.714;23.274;2023-03-18T05:44:11;95185.66;;;1.75;76.37
21011;BME280;10663;42.714;23.274;2023-03-18T05:45:43;95185.84;;;1.67;76.56
21011;BME280;10663;42.714;23.274;2023-03-18T05:47:16;95186.78;;;1.40;77.58
21011;BME280;10663;42.714;23.274;2023-03-18T05:48:58;95197.75;;;1.29;78.39
21011;BME280;10663;42.714;23.274;2023-03-18T05:50:39;95201.28;;;0.73;79.95
21011;BME280;10663;42.714;23.274;2023-03-18T05:52:14;95195.66;;;0.63;80.82
21011;BME280;10663;42.714;23.274;2023-03-18T05:53:49;95206.81;;;0.29;82.21
21011;BME280;10663;42.714;23.274;2023-03-18T05:55:30;95207.63;;;0.58;82.19
21011;BME280;10663;42.714;23.274;2023-03-18T05:57:02;95203.97;;;0.52;82.63
21011;BME280;10663;42.714;23.274;2023-03-18T05:58:33;95197.47;;;0.69;82.25
21011;BME280;10663;42.714;23.274;2023-03-18T06:00:20;95207.41;;;0.53;82.84
21011;BME280;10663;42.714;23.274;2023-03-18T06:01:53;95206.84;;;0.64;82.98
21011;BME280;10663;42.714;23.274;2023-03-18T06:03:25;95202.72;;;0.76;82.05
21011;BME280;10663;42.714;23.274;2023-03-18T06:04:57;95206.06;;;0.98;81.62
21011;BME280;10663;42.714;23.274;2023-03-18T06:06:28;95210.03;;;0.94;81.67
21011;BME280;10663;42.714;23.274;2023-03-18T06:07:59;95209.81;;;0.89;82.28
21011;BME280;10663;42.714;23.274;2023-03-18T06:09:30;95209.41;;;0.85;82.21
21011;BME280;10663;42.714;23.274;2023-03-18T06:11:03;95202.94;;;1.16;81.22
21011;BME280;10663;42.714;23.274;2023-03-18T06:12:34;95208.25;;;0.94;82.02
21011;BME280;10663;42.714;23.274;2023-03-18T06:14:06;95201.53;;;1.20;81.15
21011;BME280;10663;42.714;23.274;2023-03-18T06:15:38;95208.34;;;1.14;81.65
21011;BME280;10663;42.714;23.274;2023-03-18T06:17:09;95207.38;;;1.22;81.59
21011;BME280;10663;42.714;23.274;2023-03-18T06:18:40;95205.84;;;1.40;80.80
21011;BME280;10663;42.714;23.274;2023-03-18T06:20:12;95208.25;;;1.35;81.17
21011;BME280;10663;42.714;23.274;2023-03-18T06:21:45;95205.91;;;1.06;81.58
21011;BME280;10663;42.714;23.274;2023-03-18T06:23:16;95205.16;;;1.19;81.73
21011;BME280;10663;42.714;23.274;2023-03-18T06:24:48;95197.47;;;1.58;80.81
21011;BME280;10663;42.714;23.274;2023-03-18T06:26:20;95199.66;;;1.48;81.14
21011;BME280;10663;42.714;23.274;2023-03-18T06:27:53;95201.53;;;1.74;79.81
21011;BME280;10663;42.714;23.274;2023-03-18T06:29:28;95200.88;;;1.52;80.22
21011;BME280;10663;42.714;23.274;2023-03-18T06:31:05;95194.66;;;1.53;81.18
21011;BME280;10663;42.714;23.274;2023-03-18T06:32:36;95190.72;;;1.90;79.99
21011;BME280;10663;42.714;23.274;2023-03-18T06:34:07;95196.75;;;2.10;79.43
21011;BME280;10663;42.714;23.274;2023-03-18T06:35:41;95197.78;;;2.16;79.08
21011;BME280;10663;42.714;23.274;2023-03-18T06:37:13;95191.13;;;2.46;78.25
21011;BME280;10663;42.714;23.274;2023-03-18T06:38:45;95186.50;;;2.81;77.39
21011;BME280;10663;42.714;23.274;2023-03-18T06:40:16;95187.47;;;2.87;77.00
21011;BME280;10663;42.714;23.274;2023-03-18T06:41:51;95184.78;;;3.13;76.16
21011;BME280;10663;42.714;23.274;2023-03-18T06:43:54;95182.13;;;3.26;75.64
21011;BME280;10663;42.714;23.274;2023-03-18T06:45:27;95187.81;;;3.17;75.85
21011;BME280;10663;42.714;23.274;2023-03-18T06:47:09;95181.28;;;3.32;75.39
21011;BME280;10663;42.714;23.274;2023-03-18T06:48:44;95179.25;;;3.41;75.44
21011;BME280;10663;42.714;23.274;2023-03-18T06:50:19;95183.72;;;3.34;74.88
21011;BME280;10663;42.714;23.274;2023-03-18T06:51:51;95177.03;;;2.67;77.37
21011;BME280;10663;42.714;23.274;2023-03-18T06:53:22;95178.84;;;2.73;77.66
21011;BME280;10663;42.714;23.274;2023-03-18T06:54:54;95181.88;;;2.70;78.03
21011;BME280;10663;42.714;23.274;2023-03-18T06:56:25;95182.84;;;2.89;77.62
21011;BME280;10663;42.714;23.274;2023-03-18T06:58:06;95178.22;;;2.91;76.68
21011;BME280;10663;42.714;23.274;2023-03-18T06:59:57;95180.97;;;3.16;77.00
21011;BME280;10663;42.714;23.274;2023-03-18T07:01:28;95188.22;;;3.07;77.37
21011;BME280;10663;42.714;23.274;2023-03-18T07:03:00;95186.84;;;2.98;77.66
21011;BME280;10663;42.714;23.274;2023-03-18T07:04:32;95183.59;;;3.03;75.96
21011;BME280;10663;42.714;23.274;2023-03-18T07:06:06;95182.38;;;3.12;75.91
21011;BME280;10663;42.714;23.274;2023-03-18T07:07:41;95181.00;;;2.96;76.44
21011;BME280;10663;42.714;23.274;2023-03-18T07:09:12;95173.22;;;3.79;73.97
21011;BME280;10663;42.714;23.274;2023-03-18T07:10:45;95176.03;;;3.77;73.83
21011;BME280;10663;42.714;23.274;2023-03-18T07:12:28;95182.78;;;3.98;73.02
21011;BME280;10663;42.714;23.274;2023-03-18T07:14:00;95185.84;;;3.88;73.02
21011;BME280;10663;42.714;23.274;2023-03-18T07:15:41;95177.16;;;3.56;74.54
21011;BME280;10663;42.714;23.274;2023-03-18T07:17:13;95180.50;;;3.32;75.85
21011;BME280;10663;42.714;23.274;2023-03-18T07:18:44;95180.22;;;3.47;74.87
21011;BME280;10663;42.714;23.274;2023-03-18T07:20:16;95177.72;;;3.20;76.12
21011;BME280;10663;42.714;23.274;2023-03-18T07:21:47;95180.03;;;3.42;76.18
21011;BME280;10663;42.714;23.274;2023-03-18T07:23:19;95174.81;;;3.80;74.41
21011;BME280;10663;42.714;23.274;2023-03-18T07:24:51;95176.13;;;3.13;76.38
21011;BME280;10663;42.714;23.274;2023-03-18T07:26:23;95175.66;;;3.35;76.52
21011;BME280;10663;42.714;23.274;2023-03-18T07:27:54;95179.88;;;3.30;76.71
21011;BME280;10663;42.714;23.274;2023-03-18T07:29:27;95183.56;;;3.16;77.36
21011;BME280;10663;42.714;23.274;2023-03-18T07:30:58;95174.94;;;3.09;78.28
21011;BME280;10663;42.714;23.274;2023-03-18T07:32:28;95176.41;;;3.43;77.28
21011;BME280;10663;42.714;23.274;2023-03-18T07:34:00;95184.72;;;3.33;77.30
21011;BME280;10663;42.714;23.274;2023-03-18T07:35:31;95179.06;;;3.36;77.05
21011;BME280;10663;42.714;23.274;2023-03-18T07:37:02;95184.44;;;3.54;76.30
21011;BME280;10663;42.714;23.274;2023-03-18T07:38:34;95181.91;;;3.72;75.43
21011;BME280;10663;42.714;23.274;2023-03-18T07:40:05;95180.75;;;3.11;76.92
21011;BME280;10663;42.714;23.274;2023-03-18T07:41:36;95178.63;;;3.39;76.92
21011;BME280;10663;42.714;23.274;2023-03-18T07:43:08;95192.81;;;3.69;75.93
21011;BME280;10663;42.714;23.274;2023-03-18T07:45:21;95184.19;;;4.00;75.24
21011;BME280;10663;42.714;23.274;2023-03-18T07:46:55;95185.94;;;4.31;74.19
21011;BME280;10663;42.714;23.274;2023-03-18T07:48:26;95183.28;;;4.38;73.38
21011;BME280;10663;42.714;23.274;2023-03-18T07:49:57;95176.63;;;4.60;72.86
21011;BME280;10663;42.714;23.274;2023-03-18T07:51:28;95181.38;;;4.20;73.46
21011;BME280;10663;42.714;23.274;2023-03-18T07:53:08;95179.06;;;4.62;72.52
21011;BME280;10663;42.714;23.274;2023-03-18T07:54:39;95180.88;;;4.61;72.47
21011;BME280;10663;42.714;23.274;2023-03-18T07:56:11;95175.25;;;4.58;72.41
21011;BME280;10663;42.714;23.274;2023-03-18T07:57:42;95171.59;;;5.20;71.12
21011;BME280;10663;42.714;23.274;2023-03-18T07:59:16;95179.91;;;5.17;70.58
21011;BME280;10663;42.714;23.274;2023-03-18T08:00:48;95177.63;;;5.39;70.11
21011;BME280;10663;42.714;23.274;2023-03-18T08:02:19;95170.84;;;5.49;69.00
21011;BME280;10663;42.714;23.274;2023-03-18T08:03:51;95176.91;;;5.13;70.17
21011;BME280;10663;42.714;23.274;2023-03-18T08:05:22;95168.88;;;5.75;68.74
21011;BME280;10663;42.714;23.274;2023-03-18T08:06:53;95167.88;;;5.76;68.32
21011;BME280;10663;42.714;23.274;2023-03-18T08:08:25;95163.41;;;5.76;67.72
21011;BME280;10663;42.714;23.274;2023-03-18T08:09:56;95173.25;;;5.33;68.76
21011;BME280;10663;42.714;23.274;2023-03-18T08:11:27;95173.97;;;5.58;68.81
21011;BME280;10663;42.714;23.274;2023-03-18T08:12:57;95165.91;;;5.71;68.29
21011;BME280;10663;42.714;23.274;2023-03-18T08:14:29;95171.66;;;5.80;67.79
21011;BME280;10663;42.714;23.274;2023-03-18T08:16:00;95165.03;;;6.07;66.77
21011;BME280;10663;42.714;23.274;2023-03-18T08:17:30;95163.66;;;6.05;66.48
21011;BME280;10663;42.714;23.274;2023-03-18T08:19:01;95166.34;;;6.28;66.49
21011;BME280;10663;42.714;23.274;2023-03-18T08:20:33;95166.03;;;6.71;65.78